createdAt,value
2024-02-11T00:00:10.761Z,83.95
2024-02-11T00:04:10.076Z,83.84
2024-02-11T00:08:11.086Z,83.89
2024-02-11T00:12:09.527Z,83.92
2024-02-11T00:16:10.221Z,83.89
2024-02-11T00:28:09.424Z,83.92
2024-02-11T00:32:09.328Z,84.01
2024-02-11T00:40:10.951Z,83.81
2024-02-11T00:52:10.715Z,83.56
2024-02-11T00:56:09.505Z,83.62
2024-02-11T01:04:09.478Z,83.62
2024-02-11T01:08:09.434Z,83.62
2024-02-11T01:12:12.091Z,83.49
2024-02-11T01:16:09.303Z,83.47
2024-02-11T01:28:09.536Z,83.35
2024-02-11T01:36:11.601Z,83.23
2024-02-11T01:40:13.430Z,83.31
2024-02-11T01:52:10.729Z,83.12
2024-02-11T02:00:11.456Z,82.78
2024-02-11T02:04:10.641Z,82.59
2024-02-11T02:16:09.804Z,82.30
2024-02-11T02:20:09.834Z,82.32
2024-02-11T02:28:09.629Z,82.32
2024-02-11T02:32:09.496Z,82.34
2024-02-11T02:36:10.720Z,82.54
2024-02-11T02:40:10.089Z,82.74
2024-02-11T02:44:09.735Z,82.85
2024-02-11T02:56:09.735Z,83.42
2024-02-11T03:00:10.394Z,83.49
2024-02-11T03:04:10.917Z,83.55
2024-02-11T03:08:10.067Z,83.54
2024-02-11T03:12:09.940Z,83.65
2024-02-11T03:16:11.019Z,83.71
2024-02-11T03:20:11.519Z,83.83
2024-02-11T03:24:09.648Z,83.85
2024-02-11T03:28:11.495Z,83.94
2024-02-11T03:32:09.712Z,84.07
2024-02-11T03:36:10.687Z,83.94
2024-02-11T03:44:09.831Z,83.65
2024-02-11T03:48:09.810Z,83.67
2024-02-11T03:52:10.457Z,83.69
2024-02-11T04:00:14.360Z,83.71
2024-02-11T04:04:09.778Z,83.73
2024-02-11T04:08:11.887Z,83.62
2024-02-11T04:12:10.497Z,83.61
2024-02-11T04:16:11.634Z,83.57
2024-02-11T04:20:15.256Z,83.41
2024-02-11T04:24:21.453Z,83.47
2024-02-11T04:36:13.659Z,83.63
2024-02-11T04:40:10.514Z,83.67
2024-02-11T04:44:10.170Z,83.67
2024-02-11T04:52:10.043Z,83.78
2024-02-11T05:04:11.095Z,83.81
2024-02-11T05:08:10.379Z,83.86
2024-02-11T05:12:09.925Z,83.94
2024-02-11T05:16:14.723Z,83.86
2024-02-11T05:20:13.060Z,83.88
2024-02-11T05:24:11.369Z,83.93
2024-02-11T05:28:13.115Z,83.95
2024-02-11T05:32:15.127Z,83.94
2024-02-11T05:36:10.334Z,83.95
2024-02-11T05:40:10.870Z,83.97
2024-02-11T05:48:13.067Z,83.81
2024-02-11T05:52:10.125Z,83.71
2024-02-11T05:56:11.708Z,83.70
2024-02-11T06:00:12.754Z,83.73
2024-02-11T06:04:10.181Z,83.85
2024-02-11T06:12:11.570Z,83.83
2024-02-11T06:16:11.373Z,83.96
2024-02-11T06:18:13.190Z,83.96
2024-02-11T06:20:13.329Z,83.99
2024-02-11T06:24:10.144Z,83.85
2024-02-11T06:28:10.165Z,83.90
2024-02-11T06:32:10.889Z,83.67
2024-02-11T06:36:10.955Z,83.81
2024-02-11T06:48:10.391Z,84.07
2024-02-11T06:56:12.162Z,84.30
2024-02-11T07:00:33.547Z,84.34
2024-02-11T07:04:12.527Z,84.38
2024-02-11T07:08:11.214Z,84.34
2024-02-11T07:12:11.672Z,84.32
2024-02-11T07:16:10.333Z,84.16
2024-02-11T07:20:11.874Z,84.09
2024-02-11T07:24:10.474Z,84.04
2024-02-11T07:28:12.939Z,83.92
2024-02-11T07:36:10.917Z,83.77
2024-02-11T07:40:14.528Z,83.77
2024-02-11T07:44:12.465Z,83.80
2024-02-11T07:48:45.689Z,83.77
2024-02-11T07:53:42.247Z,83.74
2024-02-11T07:56:14.360Z,83.72
2024-02-11T08:04:11.370Z,83.57
2024-02-11T08:08:10.654Z,83.65
2024-02-11T08:12:10.554Z,83.69
2024-02-11T08:16:11.399Z,83.64
2024-02-11T08:24:10.980Z,83.59
2024-02-11T08:29:51.381Z,83.61
2024-02-11T08:32:11.251Z,83.81
2024-02-11T08:36:10.797Z,83.89
2024-02-11T08:40:12.558Z,84.03
2024-02-11T08:44:12.002Z,83.86
2024-02-11T08:48:10.880Z,83.94
2024-02-11T08:51:11.526Z,83.94
2024-02-11T08:52:13.052Z,84.09
2024-02-11T08:56:11.368Z,84.12
2024-02-11T09:00:12.870Z,84.02
2024-02-11T09:04:11.144Z,83.77
2024-02-11T09:08:10.741Z,83.91
2024-02-11T09:12:10.674Z,83.99
2024-02-11T09:16:10.885Z,83.81
2024-02-11T09:20:12.991Z,83.91
2024-02-11T09:22:58.859Z,83.91
2024-02-11T09:24:10.828Z,83.91
2024-02-11T09:28:10.797Z,84.02
2024-02-11T09:32:10.678Z,83.91
2024-02-11T09:36:10.835Z,83.63
2024-02-11T09:40:10.991Z,83.56
2024-02-11T09:44:19.053Z,83.85
2024-02-11T09:48:13.300Z,84.05
2024-02-11T09:52:13.618Z,83.89
2024-02-11T09:56:11.192Z,83.83
2024-02-11T10:00:11.615Z,84.02
2024-02-11T10:04:15.323Z,83.76
2024-02-11T10:08:14.557Z,83.89
2024-02-11T10:16:12.204Z,83.28
2024-02-11T10:20:12.669Z,83.09
2024-02-11T10:24:17.284Z,82.67
2024-02-11T10:28:11.869Z,82.68
2024-02-11T10:32:13.501Z,82.14
2024-02-11T10:36:11.465Z,82.04
2024-02-11T10:40:11.998Z,81.88
2024-02-11T10:44:11.204Z,81.59
2024-02-11T10:48:10.995Z,81.24
2024-02-11T10:56:13.465Z,81.19
2024-02-11T11:00:13.740Z,81.17
2024-02-11T11:04:17.496Z,80.85
2024-02-11T11:08:12.683Z,80.45
2024-02-11T11:16:11.805Z,80.28
2024-02-11T11:20:13.107Z,80.43
2024-02-11T11:24:16.294Z,80.45
2024-02-11T11:28:12.539Z,80.17
2024-02-11T11:32:11.990Z,80.22
2024-02-11T11:36:11.329Z,79.93
2024-02-11T11:40:12.031Z,79.74
2024-02-11T11:44:11.068Z,79.57
2024-02-11T11:48:14.906Z,79.13
2024-02-11T11:52:11.219Z,79.37
2024-02-11T11:56:14.484Z,79.34
2024-02-11T12:00:12.601Z,79.13
2024-02-11T12:04:11.374Z,79.24
2024-02-11T12:08:11.138Z,79.08
2024-02-11T12:12:11.236Z,79.15
2024-02-11T12:16:15.478Z,79.09
2024-02-11T12:20:13.118Z,78.98
2024-02-11T12:24:11.411Z,78.65
2024-02-11T12:32:12.082Z,78.26
2024-02-11T12:36:12.923Z,78.21
2024-02-11T12:40:12.208Z,78.31
2024-02-11T12:44:11.554Z,78.17
2024-02-11T12:48:11.621Z,78.26
2024-02-11T12:52:12.956Z,78.41
2024-02-11T12:56:12.764Z,78.14
2024-02-11T13:00:13.673Z,77.78
2024-02-11T13:04:11.775Z,77.65
2024-02-11T13:08:11.831Z,77.82
2024-02-11T13:12:11.314Z,78.00
2024-02-11T13:16:11.354Z,77.96
2024-02-11T13:20:13.496Z,78.14
2024-02-11T13:24:11.410Z,77.93
2024-02-11T13:28:14.253Z,77.59
2024-02-11T13:32:11.895Z,77.58
2024-02-11T13:36:13.729Z,77.44
2024-02-11T13:40:12.119Z,76.94
2024-02-11T13:44:11.360Z,76.69
2024-02-11T13:48:11.632Z,76.87
2024-02-11T13:56:12.170Z,76.85
2024-02-11T14:00:12.325Z,76.83
2024-02-11T14:04:11.789Z,77.06
2024-02-11T14:08:11.854Z,76.49
2024-02-11T14:12:12.412Z,75.15
2024-02-11T14:16:11.696Z,76.90
2024-02-11T14:20:11.734Z,76.48
2024-02-11T14:24:12.446Z,76.77
2024-02-11T14:28:12.529Z,76.48
2024-02-11T14:32:11.534Z,76.27
2024-02-11T14:40:14.632Z,75.98
2024-02-11T14:44:12.401Z,76.12
2024-02-11T14:48:11.766Z,75.79
2024-02-11T14:52:15.129Z,75.69
2024-02-11T14:56:11.876Z,75.55
2024-02-11T15:00:14.033Z,74.51
2024-02-11T15:04:12.033Z,74.27
2024-02-11T15:08:11.910Z,73.72
2024-02-11T15:12:11.701Z,73.58
2024-02-11T15:16:11.649Z,73.03
2024-02-11T15:20:11.896Z,73.28
2024-02-11T15:24:11.610Z,72.42
2024-02-11T15:28:11.898Z,72.36
2024-02-11T15:32:12.305Z,71.05
2024-02-11T15:36:12.289Z,71.26
2024-02-11T15:40:13.779Z,70.69
2024-02-11T15:44:13.001Z,70.33
2024-02-11T15:48:12.551Z,69.95
2024-02-11T15:52:12.080Z,69.97
2024-02-11T15:56:12.086Z,70.26
2024-02-11T16:00:16.396Z,71.02
2024-02-11T16:04:12.698Z,70.59
2024-02-11T16:08:12.166Z,70.83
2024-02-11T16:12:11.721Z,71.45
2024-02-11T16:16:11.962Z,71.57
2024-02-11T16:20:13.174Z,70.89
2024-02-11T16:24:13.886Z,71.26
2024-02-11T16:28:11.876Z,71.44
2024-02-11T16:32:12.331Z,71.81
2024-02-11T16:36:15.307Z,71.34
2024-02-11T16:40:12.182Z,70.84
2024-02-11T16:44:11.964Z,71.06
2024-02-11T16:48:12.156Z,71.27
2024-02-11T16:52:12.091Z,70.82
2024-02-11T16:56:14.753Z,70.83
2024-02-11T17:00:12.995Z,70.51
2024-02-11T17:04:13.285Z,71.19
2024-02-11T17:08:12.195Z,71.67
2024-02-11T17:12:11.964Z,70.86
2024-02-11T17:16:11.961Z,71.08
2024-02-11T17:20:16.162Z,71.12
2024-02-11T17:24:13.237Z,71.84
2024-02-11T17:28:12.362Z,72.17
2024-02-11T17:32:25.171Z,72.65
2024-02-11T17:36:15.024Z,72.97
2024-02-11T17:40:12.119Z,73.03
2024-02-11T17:44:12.643Z,73.12
2024-02-11T17:48:12.275Z,73.48
2024-02-11T17:52:13.473Z,74.08
2024-02-11T17:56:12.762Z,74.12
2024-02-11T18:00:18.066Z,74.37
2024-02-11T18:04:12.111Z,75.21
2024-02-11T18:08:12.949Z,75.42
2024-02-11T18:12:12.187Z,75.32
2024-02-11T18:16:12.714Z,75.36
2024-02-11T18:20:14.868Z,75.64
2024-02-11T18:24:12.434Z,75.47
2024-02-11T18:28:12.122Z,74.97
2024-02-11T18:32:12.349Z,74.88
2024-02-11T18:36:12.468Z,73.99
2024-02-11T18:40:13.755Z,73.85
2024-02-11T18:44:12.848Z,73.89
2024-02-11T18:48:12.432Z,74.98
2024-02-11T18:56:14.045Z,74.67
2024-02-11T19:00:16.237Z,74.70
2024-02-11T19:04:14.499Z,74.71
2024-02-11T19:08:12.261Z,75.23
2024-02-11T19:12:12.565Z,75.42
2024-02-11T19:16:12.283Z,75.32
2024-02-11T19:20:13.438Z,74.25
2024-02-11T19:24:12.406Z,74.00
2024-02-11T19:28:12.422Z,74.09
2024-02-11T19:32:12.341Z,73.35
2024-02-11T19:36:12.452Z,73.97
2024-02-11T19:40:13.465Z,73.09
2024-02-11T19:44:12.531Z,73.59
2024-02-11T19:48:12.707Z,73.66
2024-02-11T19:52:13.202Z,73.51
2024-02-11T19:56:12.458Z,74.51
2024-02-11T20:00:15.967Z,74.31
2024-02-11T20:04:12.418Z,75.10
2024-02-11T20:08:13.178Z,74.32
2024-02-11T20:12:17.046Z,75.29
2024-02-11T20:16:12.889Z,75.01
2024-02-11T20:20:12.603Z,74.74
2024-02-11T20:24:13.487Z,75.21
2024-02-11T20:28:14.223Z,75.15
2024-02-11T20:32:12.785Z,74.97
2024-02-11T20:36:13.499Z,74.74
2024-02-11T20:40:15.749Z,75.57
2024-02-11T20:44:13.059Z,75.49
2024-02-11T20:48:13.700Z,75.71
2024-02-11T20:52:12.598Z,75.63
2024-02-11T20:56:13.921Z,76.02
2024-02-11T21:00:21.225Z,75.56
2024-02-11T21:04:12.577Z,75.99
2024-02-11T21:08:13.617Z,75.96
2024-02-11T21:12:13.088Z,76.20
2024-02-11T21:16:12.881Z,75.56
2024-02-11T21:20:14.039Z,75.92
2024-02-11T21:24:12.899Z,75.73
2024-02-11T21:28:13.734Z,75.67
2024-02-11T21:32:12.950Z,76.06
2024-02-11T21:36:14.027Z,76.80
2024-02-11T21:40:14.056Z,76.54
2024-02-11T21:44:15.176Z,76.30
2024-02-11T21:52:13.277Z,76.41
2024-02-11T21:56:12.901Z,76.81
2024-02-11T22:00:14.360Z,77.09
2024-02-11T22:04:13.010Z,77.39
2024-02-11T22:08:12.996Z,77.27
2024-02-11T22:12:13.417Z,77.37
2024-02-11T22:16:12.909Z,77.69
2024-02-11T22:20:13.076Z,77.83
2024-02-11T22:25:54.793Z,78.02
2024-02-11T22:29:10.542Z,77.92
2024-02-11T22:32:56.487Z,77.75
2024-02-11T22:35:25.672Z,77.75
2024-02-11T22:36:16.235Z,77.50
2024-02-11T22:44:13.057Z,77.16
2024-02-11T22:48:13.092Z,77.41
2024-02-11T22:52:13.295Z,76.98
2024-02-11T22:56:14.248Z,76.69
2024-02-11T23:04:13.016Z,77.15
2024-02-11T23:08:14.310Z,76.66
2024-02-11T23:12:14.402Z,77.06
2024-02-11T23:20:15.292Z,77.26
2024-02-11T23:24:13.865Z,77.22
2024-02-11T23:28:18.840Z,76.94
2024-02-11T23:32:17.404Z,76.96
2024-02-11T23:36:14.204Z,77.30
2024-02-11T23:40:13.202Z,77.06
2024-02-11T23:44:17.539Z,76.62
2024-02-11T23:48:14.322Z,76.97
2024-02-11T23:52:13.489Z,76.69
2024-02-11T23:56:13.296Z,76.01
